Time;durP1;ratioP1;P1;durP2;ratioP2;P2;SDS_P1;SDS_P2;PMS_P1;PMS_P2;Temp;Humidity;BMP_temperature;BMP_pressure;BME280_temperature;BME280_humidity;BME280_pressure;Samples;Min_cycle;Max_cycle;Signal;HPM_P1;HPM_P2
2021/05/05 00:00:01;;;;;;;1.35;1.25;;;14.20;99.90;;;;;;5091671;28;20208;-75
2021/05/05 00:02:27;;;;;;;1.40;1.30;;;14.20;99.90;;;;;;5091787;28;20209;-76
2021/05/05 00:04:54;;;;;;;1.23;1.13;;;14.30;99.90;;;;;;5091433;28;20280;-78
2021/05/05 00:07:20;;;;;;;2.20;0.85;;;14.30;99.90;;;;;;5091857;28;20259;-76
2021/05/05 00:09:47;;;;;;;1.15;1.05;;;14.30;99.90;;;;;;5091163;28;20202;-76
2021/05/05 00:12:14;;;;;;;1.10;1.00;;;14.30;99.90;;;;;;5091293;28;20676;-77
2021/05/05 00:14:41;;;;;;;1.85;1.17;;;14.20;99.90;;;;;;5090816;28;20206;-77
2021/05/05 00:17:07;;;;;;;1.35;1.13;;;14.20;99.90;;;;;;5091545;28;20233;-78
2021/05/05 00:19:34;;;;;;;2.00;1.40;;;14.20;99.90;;;;;;5077532;28;20222;-76
2021/05/05 00:22:00;;;;;;;2.38;0.98;;;14.20;99.90;;;;;;5091129;28;20255;-83
2021/05/05 00:24:27;;;;;;;1.50;1.40;;;14.20;99.90;;;;;;5091947;28;20209;-80
2021/05/05 00:26:54;;;;;;;3.42;1.75;;;14.20;99.90;;;;;;5091168;28;20314;-79
2021/05/05 00:29:21;;;;;;;2.95;1.75;;;14.30;99.90;;;;;;5091729;28;20208;-79
2021/05/05 00:31:48;;;;;;;5.03;1.70;;;14.30;99.90;;;;;;5090622;28;20609;-76
2021/05/05 00:34:14;;;;;;;1.90;1.33;;;14.30;99.90;;;;;;5091424;28;20210;-78
2021/05/05 00:36:41;;;;;;;2.15;1.95;;;14.30;99.90;;;;;;5090791;28;20201;-77
2021/05/05 00:39:07;;;;;;;1.55;1.45;;;14.20;99.90;;;;;;5091001;28;20668;-77
2021/05/05 00:41:34;;;;;;;1.50;1.40;;;14.30;99.90;;;;;;5091022;28;20205;-76
2021/05/05 00:44:00;;;;;;;1.67;1.42;;;14.20;99.90;;;;;;5090601;28;20283;-78
2021/05/05 00:46:28;;;;;;;1.77;1.67;;;14.20;99.90;;;;;;5084591;28;20259;-79
2021/05/05 00:48:54;;;;;;;2.53;1.50;;;14.20;99.90;;;;;;5084275;28;20209;-77
2021/05/05 00:51:21;;;;;;;1.92;1.65;;;14.10;99.90;;;;;;5090585;28;20204;-77
2021/05/05 00:53:48;;;;;;;2.45;1.42;;;14.10;99.90;;;;;;5090314;28;20239;-77
2021/05/05 00:56:16;;;;;;;1.67;1.58;;;14.10;99.90;;;;;;5090749;28;20205;-77
2021/05/05 00:58:42;;;;;;;2.60;1.33;;;14.10;99.90;;;;;;5090638;28;20233;-79
2021/05/05 01:01:09;;;;;;;2.08;1.42;;;14.10;99.90;;;;;;5090742;28;20212;-80
2021/05/05 01:03:36;;;;;;;2.95;1.52;;;14.10;99.90;;;;;;5090874;28;20202;-82
2021/05/05 01:06:03;;;;;;;2.72;1.80;;;14.10;99.90;;;;;;5090892;28;20220;-77
2021/05/05 01:08:31;;;;;;;1.92;1.60;;;14.20;99.90;;;;;;5090576;28;20591;-80
2021/05/05 01:10:59;;;;;;;2.53;1.50;;;14.20;99.90;;;;;;5091123;28;20205;-79
2021/05/05 01:13:25;;;;;;;2.33;1.30;;;14.20;99.90;;;;;;5090883;28;20550;-77
2021/05/05 01:15:52;;;;;;;2.95;1.60;;;14.20;99.90;;;;;;5090345;28;20213;-76
2021/05/05 01:18:18;;;;;;;5.72;1.77;;;14.10;99.90;;;;;;5090218;28;20703;-78
2021/05/05 01:20:46;;;;;;;1.92;1.80;;;14.00;99.90;;;;;;5090052;28;20205;-77
2021/05/05 01:23:13;;;;;;;2.80;2.15;;;14.00;99.90;;;;;;5090043;28;20209;-77
2021/05/05 01:25:40;;;;;;;1.83;1.55;;;14.00;99.90;;;;;;5090508;28;20232;-77
2021/05/05 01:28:07;;;;;;;1.63;1.52;;;14.10;99.90;;;;;;5090636;28;20209;-77
2021/05/05 01:30:33;;;;;;;1.52;1.42;;;14.10;99.90;;;;;;5090212;28;20205;-77
2021/05/05 01:33:00;;;;;;;2.03;1.50;;;14.10;99.90;;;;;;5090581;28;20209;-78
2021/05/05 01:35:27;;;;;;;1.75;1.10;;;14.00;99.90;;;;;;5076418;28;20213;-78
2021/05/05 01:37:54;;;;;;;0.90;0.90;;;13.90;99.90;;;;;;5090022;28;20603;-77
2021/05/05 01:40:25;;;;;;;1.67;1.05;;;13.90;99.90;;;;;;5090583;28;20202;-78
2021/05/05 01:42:52;;;;;;;1.73;1.15;;;13.90;99.90;;;;;;5089832;28;20208;-75
2021/05/05 01:45:19;;;;;;;1.65;1.50;;;13.90;99.90;;;;;;5090231;28;20209;-76
2021/05/05 01:47:46;;;;;;;1.45;1.33;;;13.90;99.90;;;;;;5089871;28;20213;-74
2021/05/05 01:50:12;;;;;;;2.45;1.30;;;14.00;99.90;;;;;;5090276;28;20209;-72
2021/05/05 01:52:39;;;;;;;1.45;1.35;;;13.90;99.90;;;;;;5089642;28;20217;-73
2021/05/05 01:55:07;;;;;;;1.05;1.05;;;13.90;99.90;;;;;;5090310;28;20232;-73
2021/05/05 01:57:38;;;;;;;1.58;1.48;;;13.90;99.90;;;;;;5089723;28;20237;-73
2021/05/05 02:00:08;;;;;;;1.00;1.00;;;13.90;99.90;;;;;;5090248;28;20279;-73
2021/05/05 02:02:35;;;;;;;1.70;1.25;;;14.10;99.90;;;;;;5090100;28;20255;-72
2021/05/05 02:05:02;;;;;;;1.30;1.20;;;14.00;99.90;;;;;;5090401;28;20687;-73
2021/05/05 02:07:28;;;;;;;3.78;1.70;;;14.00;99.90;;;;;;5090243;28;20209;-74
2021/05/05 02:09:55;;;;;;;0.73;0.73;;;13.90;99.90;;;;;;5090021;28;20247;-76
2021/05/05 02:12:22;;;;;;;1.40;1.30;;;14.00;99.90;;;;;;5090320;28;20209;-76
2021/05/05 02:14:49;;;;;;;3.28;1.08;;;13.90;99.90;;;;;;5089591;28;20209;-76
2021/05/05 02:17:17;;;;;;;1.58;1.20;;;13.90;99.90;;;;;;5090096;28;20233;-80
2021/05/05 02:19:45;;;;;;;1.95;0.60;;;13.80;99.90;;;;;;5089591;28;20668;-79
2021/05/05 02:22:11;;;;;;;2.40;1.17;;;13.90;99.90;;;;;;5089768;28;20665;-77
2021/05/05 02:24:38;;;;;;;3.00;1.35;;;13.80;99.90;;;;;;5091580;28;20205;-76
2021/05/05 02:27:05;;;;;;;1.05;0.95;;;13.80;99.90;;;;;;5093449;28;20201;-75
2021/05/05 02:29:32;;;;;;;1.35;1.00;;;13.80;99.90;;;;;;5093100;28;20201;-74
2021/05/05 02:32:01;;;;;;;1.77;1.10;;;13.70;99.90;;;;;;5093134;28;20202;-76
2021/05/05 02:34:27;;;;;;;1.35;1.23;;;13.70;99.90;;;;;;5093689;28;20624;-75
2021/05/05 02:36:53;;;;;;;1.35;1.13;;;13.70;99.90;;;;;;5092674;28;20205;-75
2021/05/05 02:39:20;;;;;;;1.23;0.90;;;13.70;99.90;;;;;;5093381;28;20221;-76
2021/05/05 02:41:47;;;;;;;1.80;1.45;;;13.80;99.90;;;;;;5093141;28;20718;-75
2021/05/05 02:44:14;;;;;;;1.38;0.98;;;13.90;99.90;;;;;;5093244;28;20201;-78
2021/05/05 02:46:41;;;;;;;1.27;1.05;;;13.90;99.90;;;;;;5092948;28;20198;-78
2021/05/05 02:49:09;;;;;;;1.23;1.10;;;13.90;99.90;;;;;;5093310;28;20555;-76
2021/05/05 02:51:35;;;;;;;1.95;1.27;;;14.00;99.90;;;;;;5091796;28;20208;-75
2021/05/05 02:54:03;;;;;;;1.75;1.15;;;14.00;99.90;;;;;;5071848;28;20207;-77
2021/05/05 02:56:30;;;;;;;1.13;0.95;;;13.90;99.90;;;;;;5072598;28;20210;-78
2021/05/05 02:58:56;;;;;;;1.42;1.02;;;13.90;99.90;;;;;;5072982;28;20241;-79
2021/05/05 03:01:23;;;;;;;1.52;1.00;;;14.00;99.90;;;;;;5073236;28;20209;-77
2021/05/05 03:03:50;;;;;;;1.33;1.00;;;14.00;99.90;;;;;;5067877;28;20215;-78
2021/05/05 03:06:18;;;;;;;1.55;1.30;;;14.00;99.90;;;;;;5070077;28;20633;-77
2021/05/05 03:08:45;;;;;;;1.85;1.10;;;14.00;99.90;;;;;;5072161;28;20624;-78
2021/05/05 03:11:11;;;;;;;2.58;1.00;;;13.90;99.90;;;;;;5069310;28;20206;-76
2021/05/05 03:13:38;;;;;;;0.93;0.85;;;14.00;99.90;;;;;;5072398;28;20203;-81
2021/05/05 03:16:06;;;;;;;2.20;0.93;;;14.00;99.90;;;;;;5072173;28;20681;-77
2021/05/05 03:18:32;;;;;;;1.77;1.27;;;14.00;99.90;;;;;;5071887;28;20214;-76
2021/05/05 03:21:00;;;;;;;1.42;0.90;;;14.00;99.90;;;;;;5071913;28;20210;-80
2021/05/05 03:23:28;;;;;;;2.58;1.27;;;13.90;99.90;;;;;;5071363;28;20261;-74
2021/05/05 03:25:55;;;;;;;1.38;1.00;;;13.90;99.90;;;;;;5071821;28;20212;-78
2021/05/05 03:28:22;;;;;;;1.20;0.98;;;13.90;99.90;;;;;;5071748;28;20206;-79
2021/05/05 03:30:48;;;;;;;2.03;1.25;;;13.90;99.90;;;;;;5071802;28;20217;-76
2021/05/05 03:33:15;;;;;;;1.23;1.13;;;13.90;99.90;;;;;;5071870;28;20213;-76
2021/05/05 03:35:42;;;;;;;1.45;1.00;;;13.90;99.90;;;;;;5071757;28;20198;-79
2021/05/05 03:38:08;;;;;;;3.58;1.40;;;13.80;99.90;;;;;;5071905;28;20279;-78
2021/05/05 03:40:36;;;;;;;1.73;0.88;;;13.60;99.90;;;;;;5071308;28;20212;-78
2021/05/05 03:43:03;;;;;;;1.85;1.30;;;13.30;99.90;;;;;;5071938;28;20221;-80
2021/05/05 03:45:30;;;;;;;1.95;1.20;;;13.20;99.90;;;;;;5071782;28;20207;-76
2021/05/05 03:47:57;;;;;;;1.60;0.95;;;13.10;99.90;;;;;;5072022;28;20673;-74
2021/05/05 03:50:24;;;;;;;3.47;1.40;;;13.00;99.90;;;;;;5068264;28;20213;-75
2021/05/05 03:52:51;;;;;;;2.13;1.63;;;13.10;99.90;;;;;;5071042;28;20700;-74
2021/05/05 03:55:18;;;;;;;2.45;1.25;;;12.90;99.90;;;;;;5071467;28;20210;-76
2021/05/05 03:57:45;;;;;;;1.15;1.05;;;12.80;99.90;;;;;;5070970;28;20234;-76
2021/05/05 04:00:13;;;;;;;1.15;1.05;;;12.70;99.90;;;;;;5071227;28;20210;-76
2021/05/05 04:02:39;;;;;;;1.87;1.30;;;12.80;99.90;;;;;;5070640;28;20252;-75
2021/05/05 04:05:07;;;;;;;1.88;1.73;;;12.70;99.90;;;;;;5071390;28;20568;-75
2021/05/05 04:07:33;;;;;;;2.13;1.73;;;12.70;99.90;;;;;;5070733;28;20210;-73
2021/05/05 04:10:00;;;;;;;2.10;1.50;;;12.60;99.90;;;;;;5071626;28;20217;-76
2021/05/05 04:12:29;;;;;;;1.73;0.75;;;12.50;99.90;;;;;;5071684;28;20202;-76
2021/05/05 04:14:56;;;;;;;1.45;1.00;;;12.40;99.90;;;;;;5071515;28;20210;-74
2021/05/05 04:17:23;;;;;;;4.90;1.67;;;12.40;99.90;;;;;;5071102;28;20257;-75
2021/05/05 04:19:50;;;;;;;1.40;1.30;;;12.40;99.90;;;;;;5070522;28;20288;-73
2021/05/05 04:22:17;;;;;;;1.47;1.20;;;12.40;99.90;;;;;;5070906;28;20254;-75
2021/05/05 04:24:43;;;;;;;1.77;1.40;;;12.40;99.90;;;;;;5070707;28;20205;-72
2021/05/05 04:27:10;;;;;;;1.45;1.15;;;12.40;99.90;;;;;;5071006;28;20213;-74
2021/05/05 04:29:37;;;;;;;1.73;1.63;;;12.50;99.90;;;;;;5070661;28;20268;-81
2021/05/05 04:32:05;;;;;;;1.70;1.53;;;12.40;99.90;;;;;;5070570;28;20202;-73
2021/05/05 04:34:31;;;;;;;1.90;1.70;;;12.30;99.90;;;;;;5070259;28;20210;-72
2021/05/05 04:36:59;;;;;;;1.40;1.30;;;12.20;99.90;;;;;;5070670;28;20210;-73
2021/05/05 04:39:25;;;;;;;2.70;1.70;;;12.20;99.90;;;;;;5071233;28;20253;-75
2021/05/05 04:41:52;;;;;;;1.50;1.40;;;12.30;99.90;;;;;;5063783;28;20211;-72
2021/05/05 04:44:18;;;;;;;1.50;1.40;;;12.30;99.90;;;;;;5068851;28;20685;-73
2021/05/05 04:46:45;;;;;;;1.80;1.70;;;12.30;99.90;;;;;;5068023;28;20355;-72
2021/05/05 04:49:12;;;;;;;3.80;1.67;;;12.30;99.90;;;;;;5070147;28;20210;-71
2021/05/05 04:51:39;;;;;;;1.67;1.27;;;12.30;99.90;;;;;;5070299;28;20202;-71
2021/05/05 04:54:06;;;;;;;2.43;1.73;;;12.40;99.90;;;;;;5070675;28;20214;-78
2021/05/05 04:56:33;;;;;;;1.27;1.13;;;12.40;99.90;;;;;;5069930;28;20206;-72
2021/05/05 04:59:00;;;;;;;2.15;1.33;;;12.50;99.90;;;;;;5070321;28;20230;-71
2021/05/05 05:01:26;;;;;;;2.47;1.33;;;12.50;99.90;;;;;;5070100;28;20661;-70
2021/05/05 05:03:53;;;;;;;1.43;1.33;;;12.60;99.90;;;;;;5070245;28;20202;-72
2021/05/05 05:06:20;;;;;;;1.03;1.00;;;12.60;99.90;;;;;;5070703;28;20681;-72
2021/05/05 05:08:47;;;;;;;1.23;1.13;;;12.70;99.90;;;;;;5069778;28;20259;-72
2021/05/05 05:11:13;;;;;;;1.95;1.65;;;12.70;99.90;;;;;;5070432;28;20695;-74
2021/05/05 05:13:40;;;;;;;1.50;1.40;;;12.70;99.90;;;;;;5070396;28;20205;-71
2021/05/05 05:16:06;;;;;;;4.23;1.40;;;12.80;99.90;;;;;;5069985;28;20214;-70
2021/05/05 05:18:33;;;;;;;1.20;1.10;;;12.80;99.90;;;;;;5070173;28;20221;-69
2021/05/05 05:21:00;;;;;;;1.50;1.17;;;12.80;99.90;;;;;;5070486;28;20210;-71
2021/05/05 05:23:27;;;;;;;2.33;1.20;;;12.90;99.90;;;;;;5070594;28;20669;-70
2021/05/05 05:25:54;;;;;;;1.83;1.40;;;12.90;99.90;;;;;;5070236;28;20214;-72
2021/05/05 05:28:20;;;;;;;1.77;1.20;;;12.80;99.90;;;;;;5070221;28;20213;-74
2021/05/05 05:30:48;;;;;;;2.23;1.17;;;12.90;99.90;;;;;;5069741;28;20232;-73
2021/05/05 05:33:16;;;;;;;2.27;1.73;;;12.90;99.90;;;;;;5070067;28;20597;-74
2021/05/05 05:35:42;;;;;;;1.48;0.95;;;13.10;99.90;;;;;;5069819;28;20589;-73
2021/05/05 05:38:09;;;;;;;3.27;1.50;;;13.20;99.90;;;;;;5069983;28;20827;-73
2021/05/05 05:40:36;;;;;;;1.17;1.17;;;13.30;99.90;;;;;;5069996;28;20206;-78
2021/05/05 05:43:03;;;;;;;1.45;1.02;;;13.30;99.90;;;;;;5070209;28;20202;-80
2021/05/05 05:45:29;;;;;;;1.73;1.10;;;13.30;99.90;;;;;;5070087;28;20209;-75
2021/05/05 05:47:56;;;;;;;1.27;1.17;;;13.20;99.90;;;;;;5070460;28;20198;-71
2021/05/05 05:50:22;;;;;;;4.20;1.50;;;13.20;99.90;;;;;;5070005;28;20206;-74
2021/05/05 05:52:49;;;;;;;2.90;1.00;;;13.20;99.90;;;;;;5069673;28;20217;-73
2021/05/05 05:55:18;;;;;;;1.40;1.30;;;13.20;99.90;;;;;;5070069;28;20207;-74
2021/05/05 05:57:47;;;;;;;2.40;1.10;;;13.20;99.90;;;;;;5069725;28;20226;-74
2021/05/05 06:00:17;;;;;;;3.03;1.42;;;13.30;99.90;;;;;;5072397;28;20645;-74
2021/05/05 06:02:44;;;;;;;2.67;1.02;;;13.20;99.90;;;;;;5073224;28;20600;-73
2021/05/05 06:05:12;;;;;;;1.50;1.05;;;13.10;99.90;;;;;;5074000;28;20211;-76
2021/05/05 06:07:38;;;;;;;1.27;0.90;;;13.10;99.90;;;;;;5072211;28;20202;-71
2021/05/05 06:10:07;;;;;;;1.33;1.17;;;13.50;99.90;;;;;;5067689;28;20205;-71
2021/05/05 06:12:34;;;;;;;1.47;1.37;;;13.50;99.90;;;;;;5067893;28;20599;-76
2021/05/05 06:15:02;;;;;;;2.20;1.60;;;13.40;99.90;;;;;;5068699;28;20210;-71
2021/05/05 06:17:28;;;;;;;1.30;1.15;;;13.40;99.90;;;;;;5062201;28;20283;-70
2021/05/05 06:19:55;;;;;;;3.83;0.73;;;13.30;99.90;;;;;;5066892;28;20199;-73
2021/05/05 06:22:22;;;;;;;4.38;0.70;;;13.20;99.90;;;;;;5065135;28;20213;-74
2021/05/05 06:24:48;;;;;;;1.98;0.95;;;13.00;99.90;;;;;;5066209;28;20206;-73
2021/05/05 06:27:15;;;;;;;0.80;0.80;;;12.80;99.90;;;;;;5060691;28;20202;-71
2021/05/05 06:29:42;;;;;;;3.57;0.87;;;12.90;99.90;;;;;;5066327;28;20206;-70
2021/05/05 06:32:09;;;;;;;2.08;0.60;;;13.00;99.90;;;;;;5069537;28;20561;-73
2021/05/05 06:34:36;;;;;;;1.17;0.73;;;13.30;99.90;;;;;;5071205;28;20252;-73
2021/05/05 06:37:03;;;;;;;2.50;0.80;;;13.30;99.90;;;;;;5072555;28;20206;-78
2021/05/05 06:39:30;;;;;;;0.57;0.50;;;13.20;99.90;;;;;;5073199;28;20234;-74
2021/05/05 06:41:56;;;;;;;0.90;0.70;;;12.90;99.90;;;;;;5073080;28;20217;-74
2021/05/05 06:44:23;;;;;;;4.18;1.05;;;12.80;99.90;;;;;;5073423;28;20237;-75
2021/05/05 06:46:54;;;;;;;1.10;0.77;;;12.90;99.90;;;;;;5072496;28;20210;-77
2021/05/05 06:49:22;;;;;;;2.73;0.87;;;12.90;99.90;;;;;;5072905;28;20217;-73
2021/05/05 06:51:48;;;;;;;1.23;0.70;;;12.80;99.90;;;;;;5069968;28;20251;-73
2021/05/05 06:54:15;;;;;;;1.13;0.80;;;12.90;99.90;;;;;;5072042;28;20233;-80
2021/05/05 06:56:42;;;;;;;4.53;1.00;;;13.00;99.90;;;;;;5067121;28;20567;-80
2021/05/05 06:59:08;;;;;;;1.63;0.80;;;13.20;99.90;;;;;;5066332;28;20773;-74
2021/05/05 07:01:36;;;;;;;2.20;1.00;;;13.30;99.90;;;;;;5072254;28;20206;-77
2021/05/05 07:04:05;;;;;;;1.90;0.77;;;13.10;99.90;;;;;;5072771;28;20206;-78
2021/05/05 07:06:32;;;;;;;5.90;1.05;;;13.50;99.90;;;;;;5071812;28;20229;-75
2021/05/05 07:08:59;;;;;;;4.03;1.03;;;13.70;99.90;;;;;;5072189;28;20256;-73
2021/05/05 07:11:26;;;;;;;3.63;1.38;;;14.00;99.90;;;;;;5071888;28;20217;-73
2021/05/05 07:13:52;;;;;;;1.00;0.80;;;13.80;99.90;;;;;;5071590;28;20210;-70
2021/05/05 07:16:20;;;;;;;3.53;0.77;;;13.90;99.90;;;;;;5072068;28;20206;-69
2021/05/05 07:18:47;;;;;;;1.55;0.90;;;13.90;99.90;;;;;;5070311;28;20267;-70
2021/05/05 07:21:14;;;;;;;2.85;1.05;;;14.00;99.90;;;;;;5071956;28;20670;-69
2021/05/05 07:23:42;;;;;;;3.80;0.90;;;14.00;99.90;;;;;;5071832;28;20580;-74
2021/05/05 07:26:09;;;;;;;1.00;1.00;;;13.80;99.90;;;;;;5070528;28;20488;-73
2021/05/05 07:28:35;;;;;;;0.85;0.85;;;14.00;99.90;;;;;;5060429;28;20206;-76
2021/05/05 07:31:02;;;;;;;1.80;0.93;;;14.00;99.90;;;;;;5068266;28;20213;-77
2021/05/05 07:33:29;;;;;;;1.95;1.83;;;13.90;99.90;;;;;;5066096;28;20276;-74
2021/05/05 07:35:57;;;;;;;21.58;1.85;;;13.70;99.90;;;;;;5072141;28;20697;-72
2021/05/05 07:38:45;;;;;;;1.15;0.40;;;14.00;99.90;;;;;;5065510;28;20237;-81
2021/05/05 07:46:43;;;;;;;0.70;0.70;;;14.20;99.90;;;;;;5071628;28;20210;-73
2021/05/05 07:49:12;;;;;;;0.75;0.63;;;14.60;99.90;;;;;;5069606;28;20206;-74
2021/05/05 07:51:39;;;;;;;1.05;0.90;;;14.70;99.90;;;;;;5058728;28;20211;-81
2021/05/05 07:54:06;;;;;;;1.08;0.75;;;14.60;99.90;;;;;;5059155;28;20263;-83
2021/05/05 07:56:33;;;;;;;1.17;0.93;;;14.50;99.90;;;;;;5076735;28;20210;-73
2021/05/05 07:59:01;;;;;;;1.88;0.50;;;14.60;99.90;;;;;;5061612;28;20234;-79
2021/05/05 08:01:29;;;;;;;0.50;0.50;;;14.80;99.90;;;;;;5072081;28;20213;-73
2021/05/05 08:03:55;;;;;;;2.70;0.60;;;15.10;99.90;;;;;;5072026;28;20202;-79
2021/05/05 08:06:22;;;;;;;2.30;0.40;;;15.70;99.90;;;;;;5071468;28;20206;-79
2021/05/05 08:08:49;;;;;;;0.98;0.60;;;15.50;99.90;;;;;;5071331;28;20214;-74
2021/05/05 08:11:15;;;;;;;5.63;1.35;;;15.40;99.90;;;;;;5070394;28;20213;-75
2021/05/05 08:13:43;;;;;;;0.90;0.65;;;15.40;99.90;;;;;;5068847;28;20206;-73
2021/05/05 08:16:10;;;;;;;2.00;0.93;;;15.30;99.90;;;;;;5070171;28;20205;-77
2021/05/05 08:18:37;;;;;;;0.93;0.55;;;15.50;99.90;;;;;;5071033;28;20233;-74
2021/05/05 08:21:05;;;;;;;5.28;1.20;;;15.70;99.90;;;;;;5070382;28;20210;-74
2021/05/05 08:23:32;;;;;;;0.55;0.55;;;15.70;99.90;;;;;;5061603;28;20206;-74
2021/05/05 08:25:58;;;;;;;0.93;0.45;;;15.30;99.90;;;;;;5070051;28;20213;-74
2021/05/05 08:28:25;;;;;;;2.03;0.70;;;15.30;99.90;;;;;;5071306;28;20673;-75
2021/05/05 08:30:52;;;;;;;1.52;0.90;;;15.30;99.90;;;;;;5070765;28;20218;-74
2021/05/05 08:33:19;;;;;;;0.68;0.68;;;15.80;99.90;;;;;;5070273;28;20202;-74
2021/05/05 08:35:46;;;;;;;16.60;3.45;;;15.70;99.90;;;;;;5070095;28;20209;-76
2021/05/05 08:38:12;;;;;;;6.07;1.67;;;15.90;99.90;;;;;;5070354;28;20229;-74
2021/05/05 08:40:39;;;;;;;2.03;0.60;;;15.60;99.90;;;;;;5070309;28;20798;-74
2021/05/05 08:43:06;;;;;;;0.60;0.60;;;15.80;99.90;;;;;;5070472;28;20214;-78
2021/05/05 08:45:33;;;;;;;2.25;0.60;;;16.10;99.90;;;;;;5069781;28;20692;-73
2021/05/05 08:48:04;;;;;;;0.80;0.75;;;16.60;99.90;;;;;;5069749;28;20217;-74
2021/05/05 08:50:33;;;;;;;6.88;1.10;;;16.50;99.90;;;;;;5057365;28;20625;-74
2021/05/05 08:53:00;;;;;;;1.50;0.70;;;16.00;99.90;;;;;;5070539;28;20206;-74
2021/05/05 08:55:28;;;;;;;0.75;0.63;;;15.80;99.90;;;;;;5070751;28;20666;-77
2021/05/05 08:57:56;;;;;;;2.78;0.70;;;16.60;99.90;;;;;;5070885;28;20616;-75
2021/05/05 09:00:26;;;;;;;2.15;0.40;;;16.60;99.90;;;;;;5070237;28;20203;-74
2021/05/05 09:02:52;;;;;;;26.63;6.50;;;16.50;99.90;;;;;;5069971;28;20202;-73
2021/05/05 09:05:20;;;;;;;8.25;1.35;;;16.40;99.90;;;;;;5070642;28;20217;-73
2021/05/05 09:07:47;;;;;;;0.75;0.60;;;16.80;99.90;;;;;;5069574;28;20689;-73
2021/05/05 09:10:16;;;;;;;1.02;0.68;;;18.00;99.90;;;;;;5070819;28;20237;-75
2021/05/05 09:12:45;;;;;;;0.50;0.50;;;17.60;99.90;;;;;;5070139;28;20206;-77
2021/05/05 09:15:15;;;;;;;1.42;0.43;;;17.10;99.90;;;;;;5070533;28;20756;-79
2021/05/05 09:17:44;;;;;;;7.38;1.90;;;17.30;99.90;;;;;;5070185;28;20225;-80
2021/05/05 09:20:23;;;;;;;2.15;1.15;;;16.70;99.90;;;;;;5070841;28;20696;-79
2021/05/05 09:22:52;;;;;;;21.83;3.92;;;16.80;99.90;;;;;;5064585;28;20692;-82
2021/05/05 09:25:23;;;;;;;1.45;1.00;;;16.30;99.90;;;;;;5061762;28;20221;-79
2021/05/05 09:28:13;;;;;;;10.98;2.47;;;16.80;99.90;;;;;;5064505;28;20215;-77
2021/05/05 09:30:41;;;;;;;6.63;2.72;;;16.70;99.90;;;;;;5063774;28;20206;-74
2021/05/05 09:33:08;;;;;;;9.13;1.60;;;16.30;99.90;;;;;;5070156;28;20284;-82
2021/05/05 09:35:37;;;;;;;1.52;0.93;;;17.00;99.90;;;;;;5073324;28;20206;-78
2021/05/05 09:38:06;;;;;;;2.25;0.77;;;17.70;99.90;;;;;;5074404;28;20233;-77
2021/05/05 09:40:33;;;;;;;4.95;1.63;;;18.30;99.90;;;;;;5069346;28;20239;-78
2021/05/05 09:43:15;;;;;;;0.88;0.85;;;18.70;99.90;;;;;;5066502;28;20260;-76
2021/05/05 09:45:42;;;;;;;1.67;0.57;;;19.50;99.90;;;;;;5070985;28;20288;-78
2021/05/05 09:48:09;;;;;;;1.13;0.70;;;18.00;99.90;;;;;;5072026;28;20259;-78
2021/05/05 09:50:39;;;;;;;1.48;0.50;;;17.40;99.90;;;;;;5073709;28;20202;-76
2021/05/05 09:53:24;;;;;;;2.05;0.80;;;17.50;99.90;;;;;;5074400;28;20230;-78
2021/05/05 09:56:10;;;;;;;2.25;0.63;;;17.10;99.90;;;;;;5070413;28;20218;-78
2021/05/05 09:58:38;;;;;;;2.25;0.73;;;18.30;99.90;;;;;;5067695;28;20225;-88
2021/05/05 10:01:26;;;;;;;1.48;0.63;;;18.50;99.90;;;;;;5073944;28;20202;-89
2021/05/05 10:03:53;;;;;;;1.65;1.10;;;18.00;99.90;;;;;;5071858;28;20268;-77
2021/05/05 10:06:23;;;;;;;0.50;0.50;;;18.10;99.90;;;;;;5064862;28;20214;-77
2021/05/05 10:08:52;;;;;;;1.17;0.70;;;18.60;99.90;;;;;;5074904;28;20206;-80
2021/05/05 10:11:22;;;;;;;0.68;0.40;;;18.30;99.90;;;;;;5073181;28;20289;-76
2021/05/05 10:13:52;;;;;;;1.10;0.60;;;17.70;99.90;;;;;;5072788;28;20206;-76
2021/05/05 10:16:20;;;;;;;0.88;0.77;;;18.00;99.90;;;;;;5072600;28;20237;-78
2021/05/05 10:18:47;;;;;;;0.52;0.30;;;17.70;99.90;;;;;;5071389;28;20229;-76
2021/05/05 10:21:15;;;;;;;1.35;1.05;;;17.50;99.90;;;;;;5073148;28;20225;-79
2021/05/05 10:23:43;;;;;;;0.68;0.57;;;17.70;99.90;;;;;;5073111;28;20222;-77
2021/05/05 10:26:11;;;;;;;4.97;0.98;;;17.60;99.90;;;;;;5071704;28;20580;-76
2021/05/05 10:28:39;;;;;;;1.45;0.90;;;17.40;99.90;;;;;;5058951;28;20261;-76
2021/05/05 10:31:09;;;;;;;1.08;0.57;;;17.40;99.90;;;;;;5067488;28;20302;-77
2021/05/05 10:33:40;;;;;;;3.35;1.10;;;17.40;99.90;;;;;;5066824;28;20202;-77
2021/05/05 10:36:33;;;;;;;2.05;1.10;;;17.70;99.90;;;;;;5071610;28;20238;-76
2021/05/05 10:39:05;;;;;;;1.60;0.88;;;18.10;99.90;;;;;;5062327;28;20232;-77
2021/05/05 10:41:31;;;;;;;1.60;1.00;;;18.30;99.90;;;;;;5072399;28;20207;-77
2021/05/05 10:43:59;;;;;;;2.28;1.02;;;18.80;99.90;;;;;;5072536;28;20680;-74
2021/05/05 10:46:31;;;;;;;0.77;0.70;;;19.00;99.90;;;;;;5072141;28;20234;-78
2021/05/05 10:49:12;;;;;;;3.75;1.40;;;19.20;99.90;;;;;;5070493;28;20215;-76
2021/05/05 10:52:03;;;;;;;4.88;1.17;;;19.80;99.90;;;;;;5072475;28;20206;-75
2021/05/05 10:54:50;;;;;;;2.50;0.70;;;19.30;99.90;;;;;;5072689;28;20202;-75
2021/05/05 10:57:17;;;;;;;0.90;0.63;;;18.50;99.90;;;;;;5070615;28;20198;-74
2021/05/05 11:00:06;;;;;;;0.82;0.47;;;18.60;99.90;;;;;;5070720;28;20277;-73
2021/05/05 11:02:57;;;;;;;1.70;0.63;;;18.40;99.90;;;;;;5069214;28;20731;-75
2021/05/05 11:05:35;;;;;;;2.30;0.70;;;18.50;99.90;;;;;;5073258;28;20216;-75
2021/05/05 11:08:04;;;;;;;1.05;1.02;;;18.30;99.90;;;;;;5062930;28;20214;-78
2021/05/05 11:10:52;;;;;;;0.60;0.60;;;18.30;99.90;;;;;;5072439;28;20206;-80
2021/05/05 11:13:41;;;;;;;2.45;0.80;;;18.30;99.90;;;;;;5071120;28;20202;-78
2021/05/05 11:16:08;;;;;;;1.73;0.85;;;18.70;99.90;;;;;;5069481;28;20746;-77
2021/05/05 11:18:48;;;;;;;1.52;0.80;;;18.70;99.90;;;;;;5072136;28;20214;-71
2021/05/05 11:21:40;;;;;;;3.22;0.90;;;18.90;99.90;;;;;;5072065;28;20202;-72
2021/05/05 11:24:28;;;;;;;1.35;0.70;;;19.20;99.90;;;;;;5065428;28;20209;-76
2021/05/05 11:26:56;;;;;;;2.55;0.70;;;19.40;99.90;;;;;;5063045;28;20588;-72
2021/05/05 11:29:40;;;;;;;0.80;0.75;;;19.10;99.90;;;;;;5071092;28;20202;-75
2021/05/05 11:32:10;;;;;;;1.85;0.88;;;18.80;99.90;;;;;;5062932;28;20195;-75
2021/05/05 11:34:38;;;;;;;1.77;1.17;;;19.00;99.90;;;;;;5071812;28;20202;-78
2021/05/05 11:37:07;;;;;;;2.58;0.90;;;19.20;99.90;;;;;;5071832;28;20202;-75
2021/05/05 11:39:37;;;;;;;2.55;1.13;;;19.20;99.90;;;;;;5069332;28;20241;-75
2021/05/05 11:42:06;;;;;;;1.85;0.80;;;19.20;99.90;;;;;;5071982;28;20583;-83
2021/05/05 11:44:34;;;;;;;1.65;1.17;;;19.70;99.90;;;;;;5068348;28;20205;-78
2021/05/05 11:47:00;;;;;;;3.90;1.10;;;19.80;99.90;;;;;;5071458;28;20738;-81
2021/05/05 11:49:35;;;;;;;3.72;1.20;;;19.60;99.90;;;;;;5072086;28;20293;-77
2021/05/05 11:52:19;;;;;;;3.03;0.90;;;19.40;99.90;;;;;;5071436;28;20205;-73
2021/05/05 11:54:47;;;;;;;7.18;2.08;;;19.00;99.90;;;;;;5064546;28;20210;-74
2021/05/05 11:57:16;;;;;;;3.20;1.05;;;19.20;99.90;;;;;;5061541;28;20198;-80
2021/05/05 11:59:42;;;;;;;3.08;1.25;;;19.40;99.90;;;;;;5071386;28;20234;-81
2021/05/05 12:02:09;;;;;;;3.63;1.00;;;19.90;99.90;;;;;;5070400;28;20209;-78
2021/05/05 12:04:40;;;;;;;4.10;1.27;;;20.60;99.90;;;;;;5064388;28;20202;-80
2021/05/05 12:07:09;;;;;;;1.80;1.08;;;20.50;99.90;;;;;;5071058;28;20259;-78
2021/05/05 12:09:37;;;;;;;3.08;0.95;;;20.60;99.90;;;;;;5063928;28;20292;-78
2021/05/05 12:12:21;;;;;;;3.20;1.30;;;20.60;99.90;;;;;;5061904;28;20203;-79
2021/05/05 12:14:49;;;;;;;4.03;1.08;;;20.70;99.90;;;;;;5071367;28;20201;-76
2021/05/05 12:17:22;;;;;;;4.00;1.52;;;20.00;99.90;;;;;;5070622;28;20214;-77
2021/05/05 12:19:58;;;;;;;2.72;1.40;;;19.60;99.90;;;;;;5070694;28;20225;-80
2021/05/05 12:22:25;;;;;;;1.48;0.90;;;19.70;99.90;;;;;;5065535;28;20672;-73
2021/05/05 12:25:15;;;;;;;2.13;0.90;;;19.40;99.90;;;;;;5069985;28;20202;-75
2021/05/05 12:28:03;;;;;;;1.77;0.98;;;19.50;99.90;;;;;;5067242;28;20207;-75
2021/05/05 12:30:45;;;;;;;3.95;0.90;;;19.70;99.90;;;;;;5062669;28;20199;-75
2021/05/05 12:33:12;;;;;;;6.28;1.52;;;19.50;99.90;;;;;;5063230;28;20677;-80
2021/05/05 12:35:41;;;;;;;4.68;1.65;;;19.60;99.90;;;;;;5063880;28;20641;-87
2021/05/05 12:38:10;;;;;;;3.85;1.73;;;19.40;99.90;;;;;;5070661;28;20237;-75
2021/05/05 12:40:37;;;;;;;3.60;1.40;;;19.10;99.90;;;;;;5070755;28;20198;-73
2021/05/05 12:43:20;;;;;;;13.57;2.08;;;19.70;99.90;;;;;;5067292;28;20617;-80
2021/05/05 12:45:49;;;;;;;3.83;1.45;;;20.10;99.90;;;;;;5059598;28;20202;-73
2021/05/05 12:48:21;;;;;;;4.32;1.40;;;20.10;99.90;;;;;;5070429;28;20217;-78
2021/05/05 12:50:48;;;;;;;1.98;1.45;;;20.30;99.90;;;;;;5070434;28;20700;-78
2021/05/05 12:53:15;;;;;;;28.25;4.25;;;20.60;99.90;;;;;;5070295;28;20224;-70
2021/05/05 12:55:42;;;;;;;15.07;2.95;;;21.20;99.90;;;;;;5070595;28;20202;-75
2021/05/05 12:58:12;;;;;;;3.47;1.20;;;20.60;99.90;;;;;;5069752;28;20241;-73